createdAt,value
2023-01-12T00:01:42.294Z,28.20
2023-01-12T00:04:45.396Z,30.63
2023-01-12T00:07:48.254Z,29.00
2023-01-12T00:10:56.321Z,26.90
2023-01-12T00:13:59.369Z,22.67
2023-01-12T00:17:02.634Z,28.38
2023-01-12T00:20:06.727Z,28.50
2023-01-12T00:23:12.501Z,24.87
2023-01-12T00:26:15.304Z,22.25
2023-01-12T00:29:18.813Z,20.48
2023-01-12T00:32:22.518Z,26.02
2023-01-12T00:35:25.209Z,27.87
2023-01-12T00:38:28.360Z,26.07
2023-01-12T00:42:03.616Z,24.52
2023-01-12T00:45:23.869Z,22.38
2023-01-12T00:48:26.992Z,22.08
2023-01-12T00:51:29.916Z,22.97
2023-01-12T00:54:33.812Z,23.20
2023-01-12T00:57:36.699Z,24.17
2023-01-12T01:00:39.979Z,24.50
2023-01-12T01:03:42.950Z,22.98
2023-01-12T01:06:46.146Z,23.57
2023-01-12T01:09:49.833Z,23.00
2023-01-12T01:12:53.052Z,22.45
2023-01-12T01:15:55.970Z,22.00
2023-01-12T01:18:59.793Z,21.75
2023-01-12T01:22:02.846Z,21.00
2023-01-12T01:25:06.171Z,18.27
2023-01-12T01:28:08.959Z,16.63
2023-01-12T01:31:23.230Z,16.40
2023-01-12T01:34:26.305Z,15.45
2023-01-12T01:37:29.078Z,14.60
2023-01-12T01:40:33.472Z,14.27
2023-01-12T01:43:59.715Z,13.80
2023-01-12T01:47:15.012Z,13.98
2023-01-12T01:50:20.157Z,13.50
2023-01-12T01:53:25.767Z,13.20
2023-01-12T01:56:31.789Z,13.80
2023-01-12T01:59:38.506Z,15.85
2023-01-12T02:02:43.547Z,14.77
2023-01-12T02:05:49.187Z,14.25
2023-01-12T02:09:27.986Z,15.30
2023-01-12T02:12:49.522Z,14.27
2023-01-12T02:16:18.966Z,12.70
2023-01-12T02:19:33.799Z,14.38
2023-01-12T02:22:53.636Z,15.00
2023-01-12T02:26:38.137Z,14.23
2023-01-12T02:29:55.742Z,14.87
2023-01-12T02:33:19.986Z,15.20
2023-01-12T02:36:37.816Z,16.30
2023-01-12T02:40:06.697Z,15.82
2023-01-12T02:43:16.886Z,17.63
2023-01-12T02:46:32.388Z,16.73
2023-01-12T02:49:42.448Z,17.48
2023-01-12T02:52:51.483Z,16.10
2023-01-12T02:55:54.725Z,16.42
2023-01-12T02:59:03.513Z,17.13
2023-01-12T03:02:19.012Z,19.00
2023-01-12T03:05:21.941Z,18.95
2023-01-12T03:08:29.075Z,15.43
2023-01-12T03:11:32.006Z,13.60
2023-01-12T03:14:39.463Z,12.60
2023-01-12T03:17:44.738Z,12.77
2023-01-12T03:20:55.999Z,12.55
2023-01-12T03:24:22.589Z,11.38
2023-01-12T03:27:32.484Z,11.55
2023-01-12T03:30:39.262Z,12.93
2023-01-12T03:33:44.290Z,12.30
2023-01-12T03:37:14.556Z,13.98
2023-01-12T03:40:36.535Z,11.32
2023-01-12T03:43:50.447Z,10.63
2023-01-12T03:47:04.342Z,11.47
2023-01-12T03:50:16.874Z,11.40
2023-01-12T03:53:23.443Z,15.65
2023-01-12T03:56:31.346Z,16.65
2023-01-12T03:59:34.212Z,17.23
2023-01-12T04:02:37.099Z,16.43
2023-01-12T04:05:44.260Z,11.90
2023-01-12T04:08:47.206Z,10.10
2023-01-12T04:12:09.084Z,9.55
2023-01-12T04:15:12.006Z,10.23
2023-01-12T04:18:16.031Z,9.77
2023-01-12T04:21:39.516Z,14.87
2023-01-12T04:24:42.581Z,15.05
2023-01-12T04:27:49.595Z,11.90
2023-01-12T04:30:53.461Z,12.40
2023-01-12T04:33:56.323Z,11.80
2023-01-12T04:37:02.033Z,12.93
2023-01-12T04:40:06.149Z,15.27
2023-01-12T04:43:10.258Z,17.15
2023-01-12T04:46:13.210Z,18.88
2023-01-12T04:49:16.849Z,17.33
2023-01-12T04:52:19.626Z,17.67
2023-01-12T04:55:22.384Z,18.65
2023-01-12T04:58:25.138Z,19.75
2023-01-12T05:01:31.108Z,15.27
2023-01-12T05:04:34.085Z,13.00
2023-01-12T05:07:36.970Z,17.03
2023-01-12T05:10:39.993Z,17.88
2023-01-12T05:13:42.932Z,20.92
2023-01-12T05:16:45.852Z,17.73
2023-01-12T05:19:49.830Z,18.03
2023-01-12T05:22:52.931Z,19.97
2023-01-12T05:26:01.757Z,17.83
2023-01-12T05:29:04.673Z,19.00
2023-01-12T05:32:07.717Z,19.45
2023-01-12T05:35:10.557Z,17.13
2023-01-12T05:38:13.303Z,18.87
2023-01-12T05:41:16.114Z,17.83
2023-01-12T05:44:18.804Z,20.05
2023-01-12T05:47:21.526Z,18.73
2023-01-12T05:50:24.360Z,17.13
2023-01-12T05:53:43.771Z,16.13
2023-01-12T05:56:49.730Z,16.00
2023-01-12T05:59:52.546Z,17.55
2023-01-12T06:02:55.659Z,20.38
2023-01-12T06:05:58.722Z,16.80
2023-01-12T06:09:02.519Z,14.73
2023-01-12T06:12:24.246Z,13.48
2023-01-12T06:15:27.035Z,13.77
2023-01-12T06:18:29.853Z,12.18
2023-01-12T06:21:33.757Z,12.10
2023-01-12T06:24:36.589Z,12.73
2023-01-12T06:27:40.061Z,10.70
2023-01-12T06:30:42.903Z,9.10
2023-01-12T06:33:46.092Z,9.88
2023-01-12T06:36:49.715Z,9.57
2023-01-12T06:39:52.514Z,9.93
2023-01-12T06:42:55.308Z,9.98
2023-01-12T06:45:58.907Z,9.88
2023-01-12T06:49:01.786Z,9.30
2023-01-12T06:52:04.924Z,7.93
2023-01-12T06:55:08.880Z,7.97
2023-01-12T06:58:11.672Z,8.93
2023-01-12T07:01:21.265Z,8.65
2023-01-12T07:04:26.232Z,9.50
2023-01-12T07:07:29.721Z,12.50
2023-01-12T07:10:33.424Z,10.87
2023-01-12T07:13:37.290Z,10.32
2023-01-12T07:16:40.607Z,10.43
2023-01-12T07:19:44.138Z,10.20
2023-01-12T07:22:47.007Z,9.77
2023-01-12T07:25:50.344Z,9.83
2023-01-12T07:28:53.217Z,10.00
2023-01-12T07:31:57.480Z,8.77
2023-01-12T07:35:00.863Z,11.07
2023-01-12T07:38:04.320Z,12.50
2023-01-12T07:41:27.562Z,13.90
2023-01-12T07:44:35.105Z,11.70
2023-01-12T07:47:38.323Z,10.85
2023-01-12T07:50:41.257Z,11.30
2023-01-12T07:53:44.219Z,10.63
2023-01-12T07:56:47.301Z,12.43
2023-01-12T07:59:50.264Z,11.93
2023-01-12T08:02:54.528Z,10.55
2023-01-12T08:05:58.316Z,10.52
2023-01-12T08:09:01.165Z,11.43
2023-01-12T08:12:04.597Z,11.00
2023-01-12T08:15:08.976Z,11.55
2023-01-12T08:18:25.661Z,9.55
2023-01-12T08:21:40.163Z,9.88
2023-01-12T08:24:53.597Z,10.00
2023-01-12T08:28:01.110Z,11.37
2023-01-12T08:31:06.004Z,12.18
2023-01-12T08:34:10.179Z,12.45
2023-01-12T08:37:16.552Z,13.45
2023-01-12T08:40:19.722Z,13.80
2023-01-12T08:43:41.055Z,12.13
2023-01-12T08:46:52.449Z,11.10
2023-01-12T08:49:55.634Z,11.80
2023-01-12T08:52:58.451Z,10.95
2023-01-12T08:56:03.471Z,10.70
2023-01-12T08:59:06.894Z,10.70
2023-01-12T09:02:13.058Z,10.98
2023-01-12T09:05:16.850Z,9.55
2023-01-12T09:08:22.154Z,8.43
2023-01-12T09:11:29.080Z,6.83
2023-01-12T09:14:46.297Z,8.33
2023-01-12T09:17:57.611Z,7.45
2023-01-12T09:21:04.893Z,6.10
2023-01-12T09:24:08.776Z,8.48
2023-01-12T09:27:11.895Z,8.63
2023-01-12T09:30:15.010Z,7.93
2023-01-12T09:33:18.045Z,7.05
2023-01-12T09:36:23.877Z,10.73
2023-01-12T09:39:28.992Z,9.68
2023-01-12T09:42:50.360Z,8.37
2023-01-12T09:46:12.184Z,9.00
2023-01-12T09:49:18.463Z,9.23
2023-01-12T09:52:30.200Z,9.30
2023-01-12T09:56:03.823Z,9.20
2023-01-12T09:59:20.796Z,11.70
2023-01-12T10:02:27.072Z,11.73
2023-01-12T10:05:52.423Z,11.23
2023-01-12T10:09:02.128Z,9.35
2023-01-12T10:12:28.549Z,10.55
2023-01-12T10:15:53.750Z,9.17
2023-01-12T10:19:01.370Z,13.70
2023-01-12T10:22:37.641Z,11.55
2023-01-12T10:25:50.258Z,10.68
2023-01-12T10:28:56.441Z,11.68
2023-01-12T10:31:59.439Z,10.18
2023-01-12T10:35:02.320Z,10.27
2023-01-12T10:38:19.992Z,11.15
2023-01-12T10:41:26.665Z,8.18
2023-01-12T10:44:29.537Z,8.40
2023-01-12T10:47:33.857Z,8.73
2023-01-12T10:50:37.863Z,9.83
2023-01-12T10:53:46.595Z,8.70
2023-01-12T10:57:03.277Z,10.20
2023-01-12T11:00:08.127Z,9.77
2023-01-12T11:03:37.668Z,11.10
2023-01-12T11:06:44.741Z,10.13
2023-01-12T11:09:47.902Z,9.80
2023-01-12T11:12:59.654Z,9.32
2023-01-12T11:16:19.308Z,10.40
2023-01-12T11:19:40.305Z,11.20
2023-01-12T11:22:45.408Z,10.50
2023-01-12T11:25:51.768Z,12.23
2023-01-12T11:28:59.994Z,12.18
2023-01-12T11:32:34.121Z,11.90
2023-01-12T11:36:03.407Z,11.40
2023-01-12T11:39:13.300Z,12.53
2023-01-12T11:42:43.223Z,12.32
2023-01-12T11:46:08.448Z,11.32
2023-01-12T11:49:40.279Z,12.35
2023-01-12T11:52:45.619Z,12.20
2023-01-12T11:56:03.546Z,13.43
2023-01-12T11:59:24.038Z,10.75
2023-01-12T12:02:37.694Z,9.50
2023-01-12T12:05:43.872Z,8.43
2023-01-12T12:09:25.892Z,9.98
2023-01-12T12:12:28.785Z,8.43
2023-01-12T12:15:51.171Z,8.13
2023-01-12T12:19:05.698Z,9.60
2023-01-12T12:22:26.869Z,8.75
2023-01-12T12:25:48.561Z,7.70
2023-01-12T12:29:19.435Z,7.37
2023-01-12T12:32:25.439Z,6.82
2023-01-12T12:35:54.456Z,6.63
2023-01-12T12:39:06.286Z,7.13
2023-01-12T12:42:49.090Z,8.05
2023-01-12T12:46:07.672Z,7.33
2023-01-12T12:49:19.222Z,7.28
2023-01-12T12:52:24.637Z,7.72
2023-01-12T12:55:28.104Z,9.27
2023-01-12T12:59:01.928Z,8.27
2023-01-12T13:02:38.860Z,8.87
2023-01-12T13:05:51.177Z,8.90
2023-01-12T13:08:59.608Z,8.65
2023-01-12T13:12:02.645Z,11.02
2023-01-12T13:15:11.311Z,8.57
2023-01-12T13:18:49.677Z,9.53
2023-01-12T13:21:58.173Z,9.93
2023-01-12T13:25:10.274Z,8.93
2023-01-12T13:28:19.772Z,8.68
2023-01-12T13:31:32.741Z,9.18
2023-01-12T13:34:39.002Z,8.83
2023-01-12T13:37:52.166Z,9.45
2023-01-12T13:41:13.758Z,7.90
2023-01-12T13:44:30.073Z,9.18
2023-01-12T13:47:34.226Z,12.18
2023-01-12T13:50:37.771Z,11.00
2023-01-12T13:53:41.005Z,9.45
2023-01-12T13:56:53.711Z,8.82
2023-01-12T14:00:04.982Z,6.68
2023-01-12T14:03:30.819Z,7.38
2023-01-12T14:06:40.646Z,9.17
2023-01-12T14:09:55.771Z,9.07
2023-01-12T14:13:26.488Z,10.20
2023-01-12T14:17:05.587Z,14.93
2023-01-12T14:20:18.414Z,11.70
2023-01-12T14:23:26.997Z,11.83
2023-01-12T14:26:34.875Z,10.85
2023-01-12T14:29:38.074Z,11.02
2023-01-12T14:32:44.107Z,11.35
2023-01-12T14:37:02.562Z,11.27
2023-01-12T14:40:55.370Z,12.47
2023-01-12T14:44:17.597Z,16.45
2023-01-12T14:47:29.850Z,16.83
2023-01-12T14:50:33.019Z,12.65
2023-01-12T14:53:42.810Z,12.87
2023-01-12T14:57:37.219Z,12.27
2023-01-12T15:00:43.657Z,13.13
2023-01-12T15:03:48.601Z,14.20
2023-01-12T15:07:04.634Z,14.57
2023-01-12T15:10:10.575Z,13.50
2023-01-12T15:13:26.005Z,12.93
2023-01-12T15:16:47.486Z,13.73
2023-01-12T15:20:08.854Z,13.85
2023-01-12T15:23:32.341Z,13.95
2023-01-12T15:26:35.108Z,14.63
2023-01-12T15:29:38.059Z,19.10
2023-01-12T15:32:47.618Z,19.85
2023-01-12T15:35:51.028Z,20.45
2023-01-12T15:38:54.152Z,25.55
2023-01-12T15:42:15.435Z,22.83
2023-01-12T15:45:28.827Z,22.47
2023-01-12T15:48:31.778Z,23.88
2023-01-12T15:51:35.495Z,20.90
2023-01-12T15:54:38.214Z,22.08
2023-01-12T15:57:42.189Z,23.70
2023-01-12T16:00:45.755Z,24.47
2023-01-12T16:04:15.075Z,25.02
2023-01-12T16:07:11.783Z,27.85
2023-01-12T16:10:16.559Z,27.25
2023-01-12T16:13:19.365Z,20.10
2023-01-12T16:16:22.305Z,24.90
2023-01-12T16:19:25.387Z,24.90
2023-01-12T16:22:28.506Z,28.27
2023-01-12T16:25:31.584Z,25.05
2023-01-12T16:28:34.695Z,22.00
2023-01-12T16:31:39.364Z,19.80
2023-01-12T16:34:42.376Z,17.98
2023-01-12T16:37:45.194Z,16.77
2023-01-12T16:40:49.320Z,17.23
2023-01-12T16:43:52.409Z,18.53
2023-01-12T16:46:55.261Z,19.00
2023-01-12T16:49:58.720Z,19.35
2023-01-12T16:53:01.757Z,21.15
2023-01-12T16:56:04.816Z,19.15
2023-01-12T16:59:08.136Z,20.97
2023-01-12T17:02:14.983Z,23.03
2023-01-12T17:05:18.090Z,24.25
2023-01-12T17:08:21.099Z,31.08
2023-01-12T17:11:24.495Z,35.65
2023-01-12T17:14:28.599Z,38.80
2023-01-12T17:17:31.648Z,39.37
2023-01-12T17:20:36.358Z,38.88
2023-01-12T17:23:41.175Z,43.05
2023-01-12T17:26:45.424Z,47.72
2023-01-12T17:29:49.093Z,51.77
2023-01-12T17:32:52.036Z,87.60
2023-01-12T17:35:54.802Z,113.95
2023-01-12T17:38:57.984Z,91.07
2023-01-12T17:42:20.040Z,98.63
2023-01-12T17:45:23.049Z,81.57
2023-01-12T17:48:25.969Z,54.93
2023-01-12T17:51:29.426Z,41.25
2023-01-12T17:54:35.221Z,43.15
2023-01-12T17:57:38.485Z,69.72
2023-01-12T18:00:41.594Z,53.63
2023-01-12T18:03:44.782Z,47.87
2023-01-12T18:06:48.035Z,36.15
2023-01-12T18:09:51.084Z,59.92
2023-01-12T18:12:54.055Z,64.65
2023-01-12T18:15:57.368Z,61.50
2023-01-12T18:19:04.724Z,80.37
2023-01-12T18:22:07.741Z,102.13
2023-01-12T18:25:10.725Z,129.02
2023-01-12T18:28:14.471Z,123.35
2023-01-12T18:31:21.447Z,112.77
2023-01-12T18:34:24.855Z,118.07
2023-01-12T18:37:27.982Z,102.80
2023-01-12T18:40:32.870Z,90.38
2023-01-12T18:43:35.805Z,83.40
2023-01-12T18:47:05.596Z,69.47
2023-01-12T18:50:47.658Z,72.33
2023-01-12T18:53:50.756Z,61.17
2023-01-12T18:56:53.856Z,72.55
2023-01-12T19:00:00.668Z,52.75
2023-01-12T19:03:05.784Z,60.73
2023-01-12T19:06:16.754Z,72.47
2023-01-12T19:09:35.244Z,67.95
2023-01-12T19:12:38.153Z,67.63
2023-01-12T19:16:00.078Z,66.72
2023-01-12T19:19:03.188Z,59.73
2023-01-12T19:22:24.792Z,55.77
2023-01-12T19:25:47.094Z,52.38
2023-01-12T19:28:50.151Z,53.05
2023-01-12T19:31:53.316Z,54.38
2023-01-12T19:35:02.388Z,91.07
2023-01-12T19:38:14.768Z,142.27
2023-01-12T19:41:36.198Z,93.57
2023-01-12T19:44:39.606Z,57.95
2023-01-12T19:47:42.923Z,62.75
2023-01-12T19:50:47.310Z,47.87
2023-01-12T19:53:50.408Z,50.57
2023-01-12T19:56:53.424Z,59.55
2023-01-12T19:59:56.430Z,66.78
2023-01-12T20:02:59.526Z,86.20
2023-01-12T20:06:07.764Z,78.10
2023-01-12T20:09:12.419Z,75.20
2023-01-12T20:12:16.432Z,96.18
2023-01-12T20:15:20.956Z,102.18
2023-01-12T20:18:24.722Z,129.13
2023-01-12T20:21:28.014Z,95.47
2023-01-12T20:24:31.488Z,89.27
2023-01-12T20:27:36.408Z,72.03
2023-01-12T20:30:43.094Z,51.50
2023-01-12T20:33:53.758Z,51.00
2023-01-12T20:36:58.264Z,53.80
2023-01-12T20:40:03.547Z,29.13
2023-01-12T20:43:08.494Z,34.13
2023-01-12T20:46:14.304Z,42.15
2023-01-12T20:49:18.106Z,41.65
2023-01-12T20:52:25.391Z,40.60
2023-01-12T20:55:30.138Z,38.43
2023-01-12T20:58:39.607Z,36.72
2023-01-12T21:01:44.954Z,61.63
2023-01-12T21:04:55.821Z,51.15
2023-01-12T21:08:07.469Z,48.27
2023-01-12T21:11:17.811Z,46.60
2023-01-12T21:14:23.160Z,46.03
2023-01-12T21:17:26.263Z,43.00
2023-01-12T21:20:29.429Z,64.15
2023-01-12T21:23:32.628Z,57.73
2023-01-12T21:26:35.661Z,54.00
2023-01-12T21:29:39.021Z,50.70
2023-01-12T21:32:43.664Z,53.08
2023-01-12T21:35:55.421Z,57.45
2023-01-12T21:38:59.415Z,57.93
2023-01-12T21:42:20.908Z,63.47
2023-01-12T21:45:25.597Z,58.17
2023-01-12T21:48:28.673Z,58.83
2023-01-12T21:51:31.580Z,48.20
2023-01-12T21:54:34.871Z,49.60
2023-01-12T21:57:37.931Z,40.60
2023-01-12T22:00:40.849Z,42.40
2023-01-12T22:03:43.838Z,37.80
2023-01-12T22:06:46.781Z,33.47
2023-01-12T22:09:49.737Z,33.30
2023-01-12T22:12:55.442Z,30.23
2023-01-12T22:16:02.926Z,30.92
2023-01-12T22:19:05.807Z,34.53
2023-01-12T22:22:08.943Z,29.50
2023-01-12T22:25:14.093Z,31.53
2023-01-12T22:28:17.054Z,33.40
2023-01-12T22:31:22.673Z,34.15
2023-01-12T22:34:26.110Z,37.55
2023-01-12T22:37:29.199Z,40.67
2023-01-12T22:40:33.093Z,45.93
2023-01-12T22:43:43.048Z,44.97
2023-01-12T22:46:45.978Z,44.47
2023-01-12T22:49:48.852Z,42.10
2023-01-12T22:52:55.724Z,43.35
2023-01-12T22:56:03.979Z,51.33
2023-01-12T22:59:09.968Z,32.50
2023-01-12T23:02:31.975Z,34.17
2023-01-12T23:05:37.582Z,35.15
2023-01-12T23:08:41.664Z,36.72
2023-01-12T23:11:45.004Z,42.83
2023-01-12T23:14:47.962Z,42.60
2023-01-12T23:17:50.795Z,39.05
2023-01-12T23:20:54.427Z,25.83
2023-01-12T23:23:59.275Z,28.48
2023-01-12T23:27:04.659Z,27.70
2023-01-12T23:30:08.478Z,28.87
2023-01-12T23:33:11.408Z,25.58
2023-01-12T23:36:17.249Z,24.92
2023-01-12T23:39:20.104Z,23.23
2023-01-12T23:42:22.932Z,25.70
2023-01-12T23:45:25.734Z,25.93
2023-01-12T23:48:29.763Z,27.38
2023-01-12T23:51:33.324Z,28.58
2023-01-12T23:54:38.769Z,26.42
2023-01-12T23:57:41.572Z,28.83
